EST,Max TemperatureF,Mean TemperatureF,Min TemperatureF,Max Dew PointF,MeanDew PointF,Min DewpointF,Max Humidity, Mean Humidity, Min Humidity, Max Sea Level PressureIn, Mean Sea Level PressureIn, Min Sea Level PressureIn, Max VisibilityMiles, Mean VisibilityMiles, Min VisibilityMiles, Max Wind SpeedMPH, Mean Wind SpeedMPH, Max Gust SpeedMPH,PrecipitationIn, CloudCover, Events, WindDirDegrees
2011-11-1,51,48,44,42,39,37,86,74,61,30.09,30.06,30.01,10,8,5,18,7,25,0.02,7,Rain,168
2011-11-2,48,45,42,45,43,37,93,85,76,30.07,30.02,29.98,10,5,2,16,3,25,0.36,8,Rain,315
2011-11-3,47,41,34,39,31,26,83,66,49,30.21,30.16,30.04,10,10,9,14,5,19,0.00,0,,332
2011-11-4,47,37,27,32,28,25,96,71,45,30.39,30.31,30.22,10,7,0,9,5,12,0.00,0,Fog,108
2011-11-5,50,42,33,37,32,29,89,68,46,30.34,30.25,30.13,10,10,10,15,8,21,0.00,0,,139
2011-11-6,57,48,38,47,39,30,76,64,51,30.10,29.96,29.87,10,10,10,18,9,26,0.01,4,Rain,155
2011-11-7,56,48,40,46,33,24,77,54,30,30.17,30.04,29.90,10,10,10,30,13,42,0.00,1,,250
2011-11-8,43,39,34,37,35,31,92,81,70,30.23,30.19,30.13,10,10,7,7,1,10,0.06,6,Rain,185
2011-11-9,47,43,38,45,37,33,92,86,79,30.11,29.59,29.29,10,7,2,20,8,27,1.10,8,Rain-Thunderstorm,58
2011-11-10,39,36,33,36,31,28,96,89,82,29.78,29.68,29.35,10,6,1,24,10,35,0.37,8,Rain-Snow,278
2011-11-11,36,33,29,30,27,24,85,79,72,29.84,29.77,29.60,10,7,0,10,4,14,0.03,8,Fog-Snow,182
2011-11-12,50,42,34,37,33,28,92,74,56,29.70,29.64,29.56,10,10,5,14,6,18,0.00,2,,181
2011-11-13,55,49,42,48,44,37,93,82,71,29.54,29.30,29.21,10,8,2,17,9,24,0.70,7,Rain,153
2011-11-14,49,46,43,44,38,34,93,77,61,29.55,29.48,29.34,10,10,7,16,7,22,T,5,Rain,224
2011-11-15,47,40,33,38,33,29,92,73,53,29.71,29.63,29.52,10,10,8,17,7,22,0.01,3,Rain,217
2011-11-16,39,35,30,34,28,19,89,75,61,29.89,29.77,29.60,10,5,0,22,13,31,0.23,7,Fog-Rain-Snow,261
2011-11-17,35,30,24,28,24,16,85,71,56,30.04,29.91,29.80,10,6,0,22,12,30,0.29,7,Fog-Rain-Snow,264
2011-11-18,41,31,21,32,22,13,82,69,55,30.07,29.93,29.80,10,9,2,18,7,28,T,6,Snow,161
2011-11-19,45,40,36,36,32,28,79,72,65,29.83,29.79,29.76,10,10,8,8,4,,T,7,Rain,156
2011-11-20,37,30,23,18,16,14,81,69,57,30.39,30.33,30.26,10,10,10,16,7,21,0.08,5,,15
2011-11-21,33,28,23,24,20,17,81,72,63,30.43,30.37,30.30,10,10,10,9,4,13,T,8,,134
2011-11-22,39,35,30,30,27,24,78,74,70,30.37,30.22,30.04,10,10,10,15,6,20,0.00,7,,103
2011-11-23,40,32,24,34,29,22,92,81,70,30.08,30.03,29.98,10,9,5,15,5,20,T,6,,227
2011-11-24,47,41,35,41,36,32,92,84,76,30.01,29.94,29.84,8,5,3,23,11,33,0.00,6,,227
2011-11-25,51,49,46,42,41,40,86,79,71,29.91,29.82,29.76,10,8,5,22,9,30,0.00,8,,231
2011-11-26,49,46,43,46,42,39,93,88,82,29.93,29.83,29.69,7,3,2,18,8,29,0.32,8,Rain,112
2011-11-27,49,40,31,46,32,24,96,86,75,30.03,29.83,29.69,10,8,2,20,12,28,0.07,8,Rain-Snow,305
2011-11-28,34,31,28,29,25,23,85,77,69,30.14,30.09,30.03,10,9,2,15,5,23,T,8,Snow,170
2011-11-29,36,31,26,30,22,15,82,68,54,30.14,30.06,29.92,10,10,10,15,8,22,0.00,3,,3
2011-11-30,41,33,25,32,25,11,89,72,55,30.07,29.90,29.82,10,10,2,21,9,26,0.05,5,Rain-Snow,300